createdAt,value
2023-03-17T00:01:51.223Z,65.54
2023-03-17T00:04:24.249Z,65.36
2023-03-17T00:06:52.662Z,65.91
2023-03-17T00:09:21.113Z,65.66
2023-03-17T00:11:48.964Z,66.68
2023-03-17T00:14:16.618Z,66.82
2023-03-17T00:16:49.737Z,66.93
2023-03-17T00:19:24.130Z,66.38
2023-03-17T00:21:50.611Z,66.24
2023-03-17T00:24:17.173Z,66.01
2023-03-17T00:26:43.936Z,65.70
2023-03-17T00:29:10.738Z,65.73
2023-03-17T00:31:39.420Z,65.64
2023-03-17T00:34:06.475Z,65.01
2023-03-17T00:36:34.457Z,64.93
2023-03-17T00:39:01.432Z,65.17
2023-03-17T00:41:29.324Z,65.48
2023-03-17T00:43:55.903Z,65.38
2023-03-17T00:46:28.999Z,65.13
2023-03-17T00:48:55.639Z,65.85
2023-03-17T00:51:23.322Z,65.71
2023-03-17T00:53:50.674Z,65.76
2023-03-17T00:56:20.664Z,65.63
2023-03-17T00:58:48.843Z,65.86
2023-03-17T01:01:15.897Z,65.51
2023-03-17T01:03:42.535Z,64.77
2023-03-17T01:06:13.683Z,64.67
2023-03-17T01:08:42.157Z,64.88
2023-03-17T01:11:20.537Z,64.67
2023-03-17T01:13:47.682Z,64.90
2023-03-17T01:16:15.453Z,64.99
2023-03-17T01:18:42.248Z,65.54
2023-03-17T01:21:08.846Z,65.84
2023-03-17T01:23:35.690Z,65.19
2023-03-17T01:26:02.183Z,65.37
2023-03-17T01:28:28.863Z,66.03
2023-03-17T01:30:56.905Z,66.03
2023-03-17T01:33:24.204Z,65.95
2023-03-17T01:35:51.286Z,65.74
2023-03-17T01:38:18.828Z,65.66
2023-03-17T01:40:51.857Z,65.27
2023-03-17T01:43:25.084Z,65.24
2023-03-17T01:46:27.705Z,65.88
2023-03-17T01:49:27.569Z,66.16
2023-03-17T01:52:06.183Z,66.33
2023-03-17T01:54:42.437Z,66.30
2023-03-17T01:57:21.233Z,66.22
2023-03-17T01:59:55.350Z,66.40
2023-03-17T02:02:36.273Z,66.58
2023-03-17T02:05:06.902Z,66.29
2023-03-17T02:07:33.950Z,66.59
2023-03-17T02:10:02.966Z,67.09
2023-03-17T02:12:30.364Z,67.75
2023-03-17T02:14:59.409Z,67.02
2023-03-17T02:17:28.929Z,67.05
2023-03-17T02:19:56.691Z,66.88
2023-03-17T02:22:23.872Z,66.73
2023-03-17T02:24:59.389Z,66.44
2023-03-17T02:27:38.553Z,66.43
2023-03-17T02:30:09.491Z,65.78
2023-03-17T02:32:37.705Z,65.37
2023-03-17T02:35:07.327Z,65.95
2023-03-17T02:37:34.584Z,66.65
2023-03-17T02:40:01.745Z,66.84
2023-03-17T02:42:29.112Z,66.94
2023-03-17T02:44:55.595Z,66.44
2023-03-17T02:47:22.128Z,66.89
2023-03-17T02:49:50.262Z,66.44
2023-03-17T02:52:17.064Z,67.04
2023-03-17T02:54:43.747Z,66.97
2023-03-17T02:57:11.012Z,66.67
2023-03-17T02:59:37.697Z,66.12
2023-03-17T03:02:04.312Z,66.09
2023-03-17T03:04:31.416Z,66.22
2023-03-17T03:07:08.029Z,66.38
2023-03-17T03:09:34.483Z,67.00
2023-03-17T03:12:00.959Z,66.96
2023-03-17T03:14:27.582Z,66.80
2023-03-17T03:16:54.380Z,66.33
2023-03-17T03:19:20.835Z,66.96
2023-03-17T03:21:47.297Z,67.63
2023-03-17T03:24:13.776Z,66.94
2023-03-17T03:26:41.312Z,67.19
2023-03-17T03:29:07.931Z,66.97
2023-03-17T03:31:34.477Z,66.68
2023-03-17T03:34:00.984Z,67.14
2023-03-17T03:36:27.709Z,66.98
2023-03-17T03:38:54.453Z,67.75
2023-03-17T03:41:21.291Z,67.59
2023-03-17T03:43:47.825Z,67.24
2023-03-17T03:46:15.561Z,67.64
2023-03-17T03:48:42.073Z,68.22
2023-03-17T03:51:08.583Z,68.56
2023-03-17T03:53:35.427Z,67.49
2023-03-17T03:56:02.028Z,67.35
2023-03-17T03:58:28.703Z,67.25
2023-03-17T04:00:55.160Z,66.90
2023-03-17T04:03:21.614Z,66.71
2023-03-17T04:05:51.110Z,66.62
2023-03-17T04:08:17.546Z,67.19
2023-03-17T04:10:44.517Z,67.66
2023-03-17T04:13:11.004Z,68.02
2023-03-17T04:15:37.480Z,67.35
2023-03-17T04:18:05.210Z,66.67
2023-03-17T04:20:32.334Z,67.08
2023-03-17T04:22:59.128Z,66.98
2023-03-17T04:25:26.204Z,66.59
2023-03-17T04:27:52.730Z,66.85
2023-03-17T04:30:19.309Z,67.40
2023-03-17T04:32:46.390Z,66.51
2023-03-17T04:35:21.475Z,66.28
2023-03-17T04:37:49.220Z,66.63
2023-03-17T04:40:18.191Z,66.81
2023-03-17T04:42:45.409Z,66.65
2023-03-17T04:45:15.386Z,66.59
2023-03-17T04:47:42.042Z,66.51
2023-03-17T04:50:10.450Z,66.13
2023-03-17T04:52:37.837Z,66.08
2023-03-17T04:55:08.236Z,66.32
2023-03-17T04:57:36.550Z,66.39
2023-03-17T05:00:07.945Z,65.78
2023-03-17T05:02:34.729Z,66.67
2023-03-17T05:05:01.980Z,66.75
2023-03-17T05:07:28.436Z,66.94
2023-03-17T05:09:54.893Z,66.79
2023-03-17T05:12:21.405Z,66.65
2023-03-17T05:14:47.996Z,66.95
2023-03-17T05:17:14.612Z,66.58
2023-03-17T05:19:41.299Z,66.98
2023-03-17T05:22:07.985Z,67.00
2023-03-17T05:24:34.560Z,66.73
2023-03-17T05:27:01.005Z,67.04
2023-03-17T05:29:27.737Z,66.70
2023-03-17T05:31:54.242Z,67.06
2023-03-17T05:34:20.781Z,66.50
2023-03-17T05:36:47.279Z,66.39
2023-03-17T05:39:14.724Z,66.36
2023-03-17T05:41:41.455Z,65.82
2023-03-17T05:44:08.729Z,66.75
2023-03-17T05:46:35.274Z,66.24
2023-03-17T05:49:02.106Z,65.96
2023-03-17T05:51:28.664Z,66.70
2023-03-17T05:53:55.144Z,66.67
2023-03-17T05:56:21.905Z,66.05
2023-03-17T05:58:48.812Z,66.24
2023-03-17T06:01:15.414Z,65.88
2023-03-17T06:03:42.110Z,66.31
2023-03-17T06:06:09.175Z,66.10
2023-03-17T06:08:35.912Z,66.40
2023-03-17T06:11:02.402Z,65.99
2023-03-17T06:13:29.034Z,65.70
2023-03-17T06:15:57.277Z,66.17
2023-03-17T06:18:23.917Z,66.23
2023-03-17T06:20:50.667Z,66.00
2023-03-17T06:23:18.731Z,66.33
2023-03-17T06:25:45.233Z,66.82
2023-03-17T06:28:11.682Z,66.48
2023-03-17T06:30:40.485Z,66.11
2023-03-17T06:33:08.151Z,65.92
2023-03-17T06:35:35.260Z,65.49
2023-03-17T06:38:02.336Z,66.44
2023-03-17T06:40:29.541Z,65.97
2023-03-17T06:42:57.025Z,66.11
2023-03-17T06:45:23.801Z,65.16
2023-03-17T06:47:50.542Z,65.36
2023-03-17T06:50:17.382Z,65.69
2023-03-17T06:52:46.269Z,65.27
2023-03-17T06:55:13.680Z,65.32
2023-03-17T06:57:40.418Z,65.11
2023-03-17T07:00:08.487Z,66.06
2023-03-17T07:02:35.005Z,65.47
2023-03-17T07:05:01.731Z,64.99
2023-03-17T07:07:28.340Z,64.76
2023-03-17T07:09:54.928Z,65.32
2023-03-17T07:12:22.092Z,65.21
2023-03-17T07:14:48.629Z,65.23
2023-03-17T07:17:15.936Z,65.21
2023-03-17T07:19:43.624Z,64.51
2023-03-17T07:22:12.804Z,64.74
2023-03-17T07:24:41.807Z,64.71
2023-03-17T07:27:08.658Z,64.23
2023-03-17T07:29:35.215Z,64.06
2023-03-17T07:32:02.275Z,64.11
2023-03-17T07:34:28.852Z,64.04
2023-03-17T07:36:55.449Z,63.62
2023-03-17T07:39:21.981Z,63.13
2023-03-17T07:41:52.860Z,62.61
2023-03-17T07:44:19.665Z,62.44
2023-03-17T07:46:46.356Z,61.95
2023-03-17T07:49:13.228Z,61.74
2023-03-17T07:51:42.975Z,61.80
2023-03-17T07:54:15.157Z,61.69
2023-03-17T07:56:42.832Z,61.17
2023-03-17T07:59:10.779Z,60.76
2023-03-17T08:01:38.255Z,60.55
2023-03-17T08:04:05.436Z,60.29
2023-03-17T08:06:32.519Z,59.88
2023-03-17T08:08:59.450Z,60.45
2023-03-17T08:11:29.243Z,60.97
2023-03-17T08:13:55.984Z,60.43
2023-03-17T08:16:31.987Z,59.94
2023-03-17T08:18:59.488Z,59.69
2023-03-17T08:21:26.585Z,59.38
2023-03-17T08:23:54.455Z,58.67
2023-03-17T08:26:21.899Z,58.11
2023-03-17T08:28:50.162Z,57.67
2023-03-17T08:31:20.974Z,57.67
2023-03-17T08:33:51.300Z,57.40
2023-03-17T08:36:20.179Z,57.05
2023-03-17T08:38:48.212Z,56.74
2023-03-17T08:41:19.604Z,56.79
2023-03-17T08:43:47.366Z,56.90
2023-03-17T08:46:20.453Z,57.45
2023-03-17T08:48:49.255Z,56.82
2023-03-17T08:51:18.945Z,56.60
2023-03-17T08:53:46.633Z,56.63
2023-03-17T08:56:14.463Z,56.80
2023-03-17T08:58:42.565Z,57.44
2023-03-17T09:01:13.223Z,56.64
2023-03-17T09:03:41.913Z,56.59
2023-03-17T09:06:12.132Z,57.07
2023-03-17T09:08:44.569Z,56.62
2023-03-17T09:11:16.474Z,56.51
2023-03-17T09:13:43.048Z,56.32
2023-03-17T09:16:09.859Z,56.55
2023-03-17T09:18:36.837Z,56.68
2023-03-17T09:21:03.587Z,56.47
2023-03-17T09:23:30.146Z,55.66
2023-03-17T09:25:57.078Z,55.18
2023-03-17T09:28:24.475Z,55.19
2023-03-17T09:30:51.601Z,54.64
2023-03-17T09:33:18.919Z,54.19
2023-03-17T09:35:45.457Z,54.08
2023-03-17T09:38:12.689Z,53.85
2023-03-17T09:40:48.628Z,53.65
2023-03-17T09:43:42.855Z,53.90
2023-03-17T09:46:53.647Z,52.43
2023-03-17T09:49:25.208Z,52.80
2023-03-17T09:51:53.142Z,52.21
2023-03-17T09:54:38.034Z,51.03
2023-03-17T09:57:16.631Z,51.20
2023-03-17T09:59:47.863Z,51.39
2023-03-17T10:02:30.055Z,50.47
2023-03-17T10:04:57.655Z,50.96
2023-03-17T10:07:45.327Z,50.71
2023-03-17T10:10:20.768Z,50.25
2023-03-17T10:13:21.653Z,50.15
2023-03-17T10:16:03.386Z,49.36
2023-03-17T10:18:48.228Z,49.35
2023-03-17T10:21:24.224Z,48.39
2023-03-17T10:23:53.148Z,49.08
2023-03-17T10:26:42.470Z,47.24
2023-03-17T10:29:17.506Z,47.89
2023-03-17T10:31:44.836Z,48.41
2023-03-17T10:34:20.176Z,48.49
2023-03-17T10:36:51.414Z,47.74
2023-03-17T10:39:21.801Z,47.48
2023-03-17T10:42:08.787Z,46.17
2023-03-17T10:44:55.027Z,47.30
2023-03-17T10:47:37.928Z,47.21
2023-03-17T10:50:20.322Z,47.01
2023-03-17T10:52:52.676Z,47.36
2023-03-17T10:55:26.486Z,47.37
2023-03-17T10:58:16.030Z,47.41
2023-03-17T11:01:07.981Z,45.60
2023-03-17T11:03:40.379Z,46.55
2023-03-17T11:06:14.542Z,46.96
2023-03-17T11:08:55.352Z,47.38
2023-03-17T11:11:34.630Z,47.53
2023-03-17T11:14:13.409Z,46.92
2023-03-17T11:17:00.885Z,46.93
2023-03-17T11:20:13.182Z,45.51
2023-03-17T11:22:54.948Z,46.52
2023-03-17T11:25:23.408Z,46.76
2023-03-17T11:28:06.807Z,46.12
2023-03-17T11:31:00.429Z,46.13
2023-03-17T11:33:39.360Z,47.11
2023-03-17T11:36:28.674Z,46.14
2023-03-17T11:39:13.577Z,46.29
2023-03-17T11:41:50.980Z,45.14
2023-03-17T11:44:41.853Z,44.89
2023-03-17T11:47:28.313Z,46.20
2023-03-17T11:50:19.907Z,45.80
2023-03-17T11:53:27.418Z,43.61
2023-03-17T11:56:02.562Z,45.58
2023-03-17T11:58:46.935Z,44.13
2023-03-17T12:01:22.837Z,44.80
2023-03-17T12:04:16.355Z,45.74
2023-03-17T12:06:51.940Z,45.01
2023-03-17T12:09:33.056Z,44.19
2023-03-17T12:12:03.767Z,44.26
2023-03-17T12:14:46.466Z,42.72
2023-03-17T12:17:49.079Z,43.52
2023-03-17T12:20:31.013Z,43.18
2023-03-17T12:23:40.060Z,43.61
2023-03-17T12:26:27.105Z,44.31
2023-03-17T12:28:59.734Z,43.39
2023-03-17T12:31:34.179Z,44.73
2023-03-17T12:34:16.823Z,44.32
2023-03-17T12:36:44.654Z,44.16
2023-03-17T12:39:27.129Z,43.91
2023-03-17T12:41:59.663Z,43.83
2023-03-17T12:44:41.411Z,42.89
2023-03-17T12:47:29.063Z,43.11
2023-03-17T12:49:58.437Z,43.01
2023-03-17T12:52:40.249Z,42.78
2023-03-17T12:55:15.561Z,43.30
2023-03-17T12:57:48.084Z,42.80
2023-03-17T13:00:28.216Z,42.14
2023-03-17T13:03:21.009Z,41.66
2023-03-17T13:05:52.926Z,41.48
2023-03-17T13:08:35.978Z,40.91
2023-03-17T13:11:27.586Z,41.14
2023-03-17T13:13:54.329Z,41.67
2023-03-17T13:16:34.038Z,40.99
2023-03-17T13:19:32.399Z,41.59
2023-03-17T13:22:21.529Z,41.04
2023-03-17T13:24:53.688Z,42.01
2023-03-17T13:27:32.079Z,40.19
2023-03-17T13:30:22.039Z,41.91
2023-03-17T13:33:11.868Z,41.61
2023-03-17T13:36:01.778Z,40.92
2023-03-17T13:38:41.836Z,40.12
2023-03-17T13:41:31.817Z,40.97
2023-03-17T13:44:17.679Z,40.33
2023-03-17T13:46:47.260Z,41.01
2023-03-17T13:49:26.635Z,40.36
2023-03-17T13:52:08.066Z,39.33
2023-03-17T13:54:48.862Z,38.27
2023-03-17T13:57:38.183Z,39.67
2023-03-17T14:00:07.261Z,40.34
2023-03-17T14:02:39.725Z,40.04
2023-03-17T14:05:29.277Z,40.04
2023-03-17T14:08:22.210Z,39.35
2023-03-17T14:10:56.382Z,41.02
2023-03-17T14:13:32.009Z,40.32
2023-03-17T14:16:13.764Z,41.23
2023-03-17T14:18:49.660Z,41.30
2023-03-17T14:21:26.249Z,40.00
2023-03-17T14:23:58.718Z,40.99
2023-03-17T14:26:30.492Z,40.40
2023-03-17T14:29:04.620Z,40.32
2023-03-17T14:31:32.099Z,40.31
2023-03-17T14:34:01.390Z,40.57
2023-03-17T14:36:33.843Z,40.34
2023-03-17T14:39:00.302Z,40.13
2023-03-17T14:41:28.963Z,39.91
2023-03-17T14:44:01.482Z,40.42
2023-03-17T14:46:40.437Z,39.43
2023-03-17T14:49:18.884Z,40.06
2023-03-17T14:51:49.696Z,40.83
2023-03-17T14:54:23.324Z,40.75
2023-03-17T14:56:57.724Z,40.55
2023-03-17T14:59:41.027Z,39.69
2023-03-17T15:02:24.524Z,40.39
2023-03-17T15:05:23.833Z,40.68
2023-03-17T15:07:50.869Z,42.07
2023-03-17T15:10:25.183Z,42.12
2023-03-17T15:13:02.274Z,41.79
2023-03-17T15:15:35.597Z,42.15
2023-03-17T15:18:13.469Z,42.31
2023-03-17T15:20:43.728Z,41.61
2023-03-17T15:23:18.284Z,41.09
2023-03-17T15:25:56.940Z,41.50
2023-03-17T15:28:31.892Z,42.65
2023-03-17T15:31:12.786Z,42.62
2023-03-17T15:33:41.292Z,42.36
2023-03-17T15:36:31.407Z,42.87
2023-03-17T15:38:59.070Z,43.99
2023-03-17T15:41:26.037Z,44.42
2023-03-17T15:43:53.573Z,44.58
2023-03-17T15:46:27.409Z,44.80
2023-03-17T15:48:54.233Z,44.45
2023-03-17T15:51:21.052Z,44.57
2023-03-17T15:53:47.583Z,43.61
2023-03-17T15:56:20.732Z,44.73
2023-03-17T15:58:51.361Z,45.00
2023-03-17T16:01:19.726Z,45.03
2023-03-17T16:03:48.043Z,44.73
2023-03-17T16:06:22.238Z,44.78
2023-03-17T16:08:50.380Z,45.33
2023-03-17T16:11:30.590Z,45.26
2023-03-17T16:13:59.706Z,44.62
2023-03-17T16:16:39.822Z,44.75
2023-03-17T16:19:14.750Z,44.90
2023-03-17T16:21:41.390Z,45.70
2023-03-17T16:24:19.078Z,46.29
2023-03-17T16:26:46.217Z,46.39
2023-03-17T16:29:14.462Z,46.85
2023-03-17T16:31:41.722Z,46.92
2023-03-17T16:34:17.532Z,46.78
2023-03-17T16:36:44.515Z,47.21
2023-03-17T16:39:20.476Z,46.97
2023-03-17T16:41:48.467Z,47.16
2023-03-17T16:44:18.820Z,47.24
2023-03-17T16:46:45.645Z,47.63
2023-03-17T16:49:18.494Z,47.82
2023-03-17T16:51:45.896Z,48.21
2023-03-17T16:54:12.794Z,48.22
2023-03-17T16:56:41.274Z,48.46
2023-03-17T16:59:21.653Z,48.49
2023-03-17T17:01:48.170Z,48.34
2023-03-17T17:04:14.739Z,48.09
2023-03-17T17:06:41.306Z,48.22
2023-03-17T17:09:07.764Z,48.42
2023-03-17T17:11:34.232Z,48.79
2023-03-17T17:14:00.729Z,49.18
2023-03-17T17:16:33.407Z,49.27
2023-03-17T17:19:02.651Z,49.70
2023-03-17T17:21:29.710Z,49.50
2023-03-17T17:23:56.503Z,50.18
2023-03-17T17:26:23.559Z,49.76
2023-03-17T17:28:50.389Z,49.83
2023-03-17T17:31:17.018Z,50.22
2023-03-17T17:33:43.576Z,49.95
2023-03-17T17:36:16.781Z,49.92
2023-03-17T17:38:43.892Z,50.06
2023-03-17T17:41:12.320Z,50.08
2023-03-17T17:43:39.529Z,50.37
2023-03-17T17:46:22.943Z,50.31
2023-03-17T17:48:50.111Z,50.53
2023-03-17T17:51:16.839Z,50.69
2023-03-17T17:53:44.202Z,50.94
2023-03-17T17:56:16.057Z,50.99
2023-03-17T17:58:42.846Z,50.33
2023-03-17T18:01:12.231Z,50.67
2023-03-17T18:03:41.537Z,50.62
2023-03-17T18:06:08.638Z,51.01
2023-03-17T18:08:35.220Z,50.96
2023-03-17T18:11:01.780Z,50.80
2023-03-17T18:13:28.555Z,51.07
2023-03-17T18:15:55.131Z,51.34
2023-03-17T18:18:24.622Z,50.93
2023-03-17T18:20:52.494Z,51.40
2023-03-17T18:23:20.090Z,51.63
2023-03-17T18:25:47.075Z,51.78
2023-03-17T18:28:13.587Z,52.09
2023-03-17T18:30:40.608Z,51.84
2023-03-17T18:33:18.030Z,52.12
2023-03-17T18:35:48.469Z,52.91
2023-03-17T18:38:15.109Z,52.96
2023-03-17T18:40:43.494Z,53.89
2023-03-17T18:43:11.012Z,53.66
2023-03-17T18:45:37.886Z,53.44
2023-03-17T18:48:04.489Z,54.27
2023-03-17T18:50:31.265Z,54.31
2023-03-17T18:52:58.142Z,54.09
2023-03-17T18:55:24.843Z,53.48
2023-03-17T18:57:51.807Z,54.22
2023-03-17T19:00:18.713Z,54.22
2023-03-17T19:02:46.320Z,54.12
2023-03-17T19:05:14.178Z,54.08
2023-03-17T19:07:40.965Z,53.25
2023-03-17T19:10:09.949Z,53.98
2023-03-17T19:12:37.121Z,54.48
2023-03-17T19:15:06.096Z,54.98
2023-03-17T19:17:33.222Z,55.11
2023-03-17T19:20:00.065Z,55.65
2023-03-17T19:22:26.988Z,55.98
2023-03-17T19:24:53.616Z,56.24
2023-03-17T19:27:20.615Z,56.43
2023-03-17T19:29:47.159Z,56.48
2023-03-17T19:32:13.816Z,56.53
2023-03-17T19:34:40.440Z,56.53
2023-03-17T19:37:07.014Z,55.78
2023-03-17T19:39:33.869Z,56.82
2023-03-17T19:42:00.843Z,56.96
2023-03-17T19:44:27.690Z,56.89
2023-03-17T19:46:54.473Z,56.87
2023-03-17T19:49:21.168Z,56.44
2023-03-17T19:51:48.865Z,56.39
2023-03-17T19:54:15.884Z,56.11
2023-03-17T19:56:42.545Z,56.19
2023-03-17T19:59:12.252Z,56.39
2023-03-17T20:01:38.866Z,56.59
2023-03-17T20:04:06.870Z,56.93
2023-03-17T20:06:34.601Z,56.39
2023-03-17T20:09:03.902Z,56.92
2023-03-17T20:11:33.971Z,57.37
2023-03-17T20:14:02.742Z,57.63
2023-03-17T20:16:32.646Z,58.09
2023-03-17T20:19:01.253Z,57.85
2023-03-17T20:21:28.205Z,57.64
2023-03-17T20:23:54.808Z,57.16
2023-03-17T20:26:21.357Z,57.87
2023-03-17T20:28:48.156Z,57.86
2023-03-17T20:31:14.959Z,58.17
2023-03-17T20:33:41.941Z,59.26
2023-03-17T20:36:09.334Z,59.04
2023-03-17T20:38:39.097Z,60.33
2023-03-17T20:41:15.942Z,60.04
2023-03-17T20:43:43.395Z,60.24
2023-03-17T20:46:19.581Z,60.40
2023-03-17T20:48:48.178Z,61.00
2023-03-17T20:51:16.695Z,60.85
2023-03-17T20:53:46.102Z,60.84
2023-03-17T20:56:15.938Z,60.97
2023-03-17T20:58:47.001Z,61.40
2023-03-17T21:01:15.364Z,61.58
2023-03-17T21:03:44.924Z,62.18
2023-03-17T21:06:13.201Z,62.26
2023-03-17T21:08:40.566Z,63.08
2023-03-17T21:11:08.550Z,63.37
2023-03-17T21:13:35.295Z,63.04
2023-03-17T21:16:02.831Z,63.21
2023-03-17T21:18:29.684Z,62.86
2023-03-17T21:20:56.701Z,62.65
2023-03-17T21:23:23.694Z,62.87
2023-03-17T21:25:55.948Z,63.05
2023-03-17T21:28:23.268Z,63.02
2023-03-17T21:30:52.854Z,62.82
2023-03-17T21:33:21.998Z,62.72
2023-03-17T21:35:48.813Z,63.22
2023-03-17T21:38:16.324Z,63.63
2023-03-17T21:40:42.987Z,63.53
2023-03-17T21:43:10.628Z,63.54
2023-03-17T21:45:38.848Z,64.03
2023-03-17T21:48:05.477Z,63.26
2023-03-17T21:50:32.817Z,63.15
2023-03-17T21:52:59.466Z,63.19
2023-03-17T21:55:26.083Z,63.17
2023-03-17T21:57:52.764Z,63.51
2023-03-17T22:00:23.596Z,63.82
2023-03-17T22:02:51.652Z,63.58
2023-03-17T22:05:18.409Z,64.66
2023-03-17T22:07:45.239Z,64.94
2023-03-17T22:10:12.106Z,65.70
2023-03-17T22:12:39.076Z,65.05
2023-03-17T22:15:08.824Z,65.50
2023-03-17T22:17:36.247Z,65.29
2023-03-17T22:20:06.776Z,64.75
2023-03-17T22:22:34.374Z,64.75
2023-03-17T22:25:04.932Z,65.02
2023-03-17T22:27:31.947Z,65.41
2023-03-17T22:29:58.465Z,65.00
2023-03-17T22:32:24.972Z,64.87
2023-03-17T22:34:53.006Z,65.09
2023-03-17T22:37:19.614Z,65.42
2023-03-17T22:39:46.077Z,65.58
2023-03-17T22:42:12.760Z,65.62
2023-03-17T22:44:40.215Z,65.83
2023-03-17T22:47:06.801Z,65.68
2023-03-17T22:49:33.287Z,65.52
2023-03-17T22:51:59.801Z,65.99
2023-03-17T22:54:26.860Z,66.02
2023-03-17T22:56:53.395Z,65.92
2023-03-17T22:59:19.849Z,66.11
2023-03-17T23:01:46.340Z,66.51
2023-03-17T23:04:12.918Z,66.62
2023-03-17T23:06:41.673Z,67.24
2023-03-17T23:09:09.365Z,66.80
2023-03-17T23:11:37.340Z,67.30
2023-03-17T23:14:04.376Z,67.24
2023-03-17T23:16:31.200Z,67.16
2023-03-17T23:18:58.136Z,67.19
2023-03-17T23:21:34.834Z,67.31
2023-03-17T23:24:03.931Z,67.53
2023-03-17T23:26:32.031Z,67.29
2023-03-17T23:28:58.566Z,67.51
2023-03-17T23:31:25.533Z,67.44
2023-03-17T23:33:52.560Z,67.51
2023-03-17T23:36:19.481Z,67.04
2023-03-17T23:38:46.650Z,67.47
2023-03-17T23:41:15.199Z,67.61
2023-03-17T23:43:41.927Z,68.22
2023-03-17T23:46:08.547Z,67.91
2023-03-17T23:48:35.589Z,67.90
2023-03-17T23:51:02.836Z,67.43
2023-03-17T23:53:29.413Z,67.82
2023-03-17T23:55:55.922Z,68.28
2023-03-17T23:58:22.724Z,68.46
